Time;durP1;ratioP1;P1;durP2;ratioP2;P2;SDS_P1;SDS_P2;PMS_P1;PMS_P2;Temp;Humidity;BMP_temperature;BMP_pressure;BME280_temperature;BME280_humidity;BME280_pressure;Samples;Min_cycle;Max_cycle;Signal;HPM_P1;HPM_P2
2023/01/13 00:01:10;;;;;;;2.37;2.00;;;8.20;99.90;;;;;;5033271;28;20191;-55
2023/01/13 00:03:36;;;;;;;1.97;1.63;;;;;;;;;;5035010;28;20278;-56
2023/01/13 00:06:02;;;;;;;2.23;1.63;;;;;;;;;;5032956;28;20196;-55
2023/01/13 00:08:28;;;;;;;2.57;1.60;;;;;;;;;;5030953;28;20242;-53
2023/01/13 00:10:54;;;;;;;2.10;1.70;;;;;;;;;;5032721;28;20184;-54
2023/01/13 00:13:25;;;;;;;1.90;1.47;;;;;;;;;;5024218;28;20274;-56
2023/01/13 00:15:58;;;;;;;2.13;1.60;;;;;;;;;;5015935;28;20209;-55
2023/01/13 00:18:24;;;;;;;2.07;1.87;;;8.30;99.90;;;;;;5013154;28;20200;-53
2023/01/13 00:21:05;;;;;;;1.90;1.60;;;8.40;99.90;;;;;;5013764;28;20450;-56
2023/01/13 00:23:33;;;;;;;2.60;1.83;;;8.30;99.90;;;;;;5012631;28;20673;-54
2023/01/13 00:26:01;;;;;;;1.87;1.77;;;8.20;99.90;;;;;;5013983;28;20215;-55
2023/01/13 00:28:27;;;;;;;2.87;1.70;;;8.40;99.90;;;;;;5012621;28;20542;-54
2023/01/13 00:30:52;;;;;;;2.40;1.97;;;8.30;99.90;;;;;;5026735;28;20190;-53
2023/01/13 00:33:18;;;;;;;2.27;1.80;;;8.10;99.90;;;;;;5028569;28;20262;-52
2023/01/13 00:35:44;;;;;;;2.80;1.87;;;8.10;99.90;;;;;;5023004;28;20192;-52
2023/01/13 00:38:09;;;;;;;2.10;1.90;;;7.70;99.90;;;;;;5032751;28;20622;-54
2023/01/13 00:40:36;;;;;;;2.67;1.90;;;8.00;99.90;;;;;;5015114;28;20219;-51
2023/01/13 00:45:46;;;;;;;1.90;1.70;;;8.00;99.90;;;;;;5012044;28;20202;-52
2023/01/13 00:48:11;;;;;;;2.60;1.43;;;8.50;99.90;;;;;;5029439;28;20192;-53
2023/01/13 00:50:37;;;;;;;3.10;1.80;;;8.40;99.90;;;;;;5030931;28;20180;-54
2023/01/13 00:53:03;;;;;;;1.93;1.73;;;;;;;;;;5035881;28;20579;-55
2023/01/13 00:55:34;;;;;;;3.27;1.77;;;8.20;99.90;;;;;;5052030;28;20947;-54
2023/01/13 00:58:02;;;;;;;1.70;1.60;;;8.20;99.90;;;;;;5049829;28;20207;-52
2023/01/13 01:00:29;;;;;;;2.00;1.80;;;8.30;99.90;;;;;;5018658;28;20169;-51
2023/01/13 01:02:55;;;;;;;1.80;1.60;;;8.20;99.90;;;;;;5021598;28;20184;-55
2023/01/13 01:05:20;;;;;;;2.43;1.77;;;8.10;99.90;;;;;;5012289;28;20515;-51
2023/01/13 01:07:46;;;;;;;2.17;1.77;;;8.10;99.90;;;;;;5028865;28;20233;-52
2023/01/13 01:10:11;;;;;;;2.00;1.53;;;8.20;99.90;;;;;;5012445;28;20203;-55
2023/01/13 01:12:37;;;;;;;1.87;1.50;;;8.30;99.90;;;;;;5025317;28;20187;-55
2023/01/13 01:15:04;;;;;;;2.40;1.80;;;8.30;99.90;;;;;;5024953;28;20184;-53
2023/01/13 01:17:30;;;;;;;1.90;1.60;;;8.40;99.90;;;;;;5012057;28;20263;-55
2023/01/13 01:19:56;;;;;;;2.13;1.70;;;8.40;99.90;;;;;;5023825;28;20175;-55
2023/01/13 01:22:21;;;;;;;2.20;1.80;;;8.50;99.90;;;;;;5012307;28;20173;-54
2023/01/13 01:24:47;;;;;;;2.47;1.90;;;8.50;99.90;;;;;;5018702;28;20560;-53
2023/01/13 01:27:12;;;;;;;1.63;1.50;;;8.50;99.90;;;;;;5031724;28;20195;-57
2023/01/13 01:29:38;;;;;;;2.27;1.70;;;8.60;99.90;;;;;;5031704;28;20834;-54
2023/01/13 01:32:04;;;;;;;1.70;1.60;;;8.70;99.90;;;;;;5031356;28;20190;-55
2023/01/13 01:34:29;;;;;;;1.60;1.50;;;8.80;99.90;;;;;;5029456;28;20184;-54
2023/01/13 01:36:55;;;;;;;2.23;1.50;;;8.80;99.90;;;;;;5020023;28;20192;-55
2023/01/13 01:39:20;;;;;;;1.80;1.53;;;8.90;99.90;;;;;;5031583;28;20227;-51
2023/01/13 01:44:42;;;;;;;1.93;1.63;;;8.90;99.90;;;;;;5011798;28;20180;-55
2023/01/13 01:47:15;;;;;;;1.40;1.30;;;8.90;99.90;;;;;;5011174;28;20318;-55
2023/01/13 01:49:41;;;;;;;2.03;1.63;;;9.00;99.90;;;;;;5021728;28;20183;-55
2023/01/13 01:52:16;;;;;;;2.67;2.10;;;9.10;99.90;;;;;;5027974;28;20684;-55
2023/01/13 01:54:46;;;;;;;1.60;1.50;;;9.00;99.90;;;;;;5031128;28;20183;-54
2023/01/13 01:57:19;;;;;;;1.83;1.50;;;9.00;99.90;;;;;;5023516;28;20732;-52
2023/01/13 01:59:44;;;;;;;3.20;1.50;;;9.00;99.90;;;;;;5025125;28;20219;-53
2023/01/13 02:02:10;;;;;;;2.73;1.63;;;9.10;99.90;;;;;;5025511;28;20173;-55
2023/01/13 02:04:40;;;;;;;1.93;1.33;;;9.20;99.90;;;;;;5014898;28;20250;-53
2023/01/13 02:07:06;;;;;;;2.60;1.53;;;9.20;99.90;;;;;;5029913;28;20210;-55
2023/01/13 02:09:33;;;;;;;1.53;1.43;;;9.30;99.90;;;;;;5030485;28;20318;-55
2023/01/13 02:14:44;;;;;;;3.17;1.33;;;9.20;99.90;;;;;;5030918;28;20163;-57
2023/01/13 02:17:22;;;;;;;2.07;1.30;;;9.20;99.90;;;;;;5031102;28;20204;-52
2023/01/13 02:20:12;;;;;;;1.40;1.30;;;9.20;99.90;;;;;;5031097;28;20668;-52
2023/01/13 02:26:29;;;;;;;2.30;1.50;;;9.20;99.90;;;;;;5008661;28;20251;-52
2023/01/13 02:32:46;;;;;;;1.70;1.57;;;9.00;99.90;;;;;;5008555;28;20724;-55
2023/01/13 02:35:33;;;;;;;1.47;1.37;;;8.80;99.90;;;;;;5008417;28;20181;-52
2023/01/13 02:38:01;;;;;;;2.83;1.60;;;8.80;99.90;;;;;;5008803;28;20197;-52
2023/01/13 02:40:55;;;;;;;1.90;1.70;;;8.80;99.90;;;;;;5009091;28;20204;-55
2023/01/13 02:46:30;;;;;;;1.57;1.47;;;8.80;99.90;;;;;;5028678;28;20193;-56
2023/01/13 02:49:01;;;;;;;1.50;1.40;;;8.80;99.90;;;;;;5027650;28;20196;-52
2023/01/13 02:51:30;;;;;;;1.50;1.07;;;8.90;99.90;;;;;;5015659;28;20802;-55
2023/01/13 02:54:05;;;;;;;1.67;1.47;;;8.90;99.90;;;;;;5009602;28;20597;-52
2023/01/13 02:56:34;;;;;;;2.60;1.53;;;9.00;99.90;;;;;;5020873;28;20258;-53
2023/01/13 02:59:01;;;;;;;1.87;1.53;;;9.00;99.90;;;;;;5025696;28;20283;-55
2023/01/13 03:01:26;;;;;;;1.67;1.20;;;8.90;99.90;;;;;;5014131;28;20553;-52
2023/01/13 03:03:52;;;;;;;1.37;1.30;;;8.90;99.90;;;;;;5010859;28;20165;-52
2023/01/13 03:06:28;;;;;;;1.30;1.20;;;9.00;99.90;;;;;;5024359;28;20290;-52
2023/01/13 03:09:03;;;;;;;1.30;1.20;;;9.00;99.90;;;;;;5030905;28;20589;-53
2023/01/13 03:11:38;;;;;;;1.63;1.37;;;9.10;99.90;;;;;;5030837;28;20517;-56
2023/01/13 03:14:20;;;;;;;4.40;1.40;;;9.00;99.90;;;;;;5030301;28;20163;-52
2023/01/13 03:17:13;;;;;;;1.37;1.23;;;9.00;99.90;;;;;;5030738;28;20204;-53
2023/01/13 03:20:06;;;;;;;1.53;1.43;;;9.00;99.90;;;;;;5010958;28;20688;-54
2023/01/13 03:23:18;;;;;;;1.30;1.20;;;9.00;99.90;;;;;;5012831;28;20165;-54
2023/01/13 03:25:59;;;;;;;3.20;1.80;;;9.10;99.90;;;;;;4992032;28;20209;-52
2023/01/13 03:28:31;;;;;;;1.00;1.00;;;9.10;99.90;;;;;;4992176;28;20162;-57
2023/01/13 03:31:05;;;;;;;1.10;1.10;;;9.00;99.90;;;;;;4992159;28;20257;-55
2023/01/13 03:33:38;;;;;;;1.83;1.20;;;9.10;99.90;;;;;;5000184;28;20176;-55
2023/01/13 03:36:09;;;;;;;1.20;1.10;;;9.10;99.90;;;;;;5006961;28;20295;-57
2023/01/13 03:38:44;;;;;;;1.47;1.30;;;9.10;99.90;;;;;;4994274;28;20668;-52
2023/01/13 03:41:23;;;;;;;1.30;1.10;;;9.10;99.90;;;;;;5011103;28;20163;-53
2023/01/13 03:47:01;;;;;;;1.40;1.30;;;9.00;99.90;;;;;;5009760;28;20267;-53
2023/01/13 03:49:46;;;;;;;1.63;1.33;;;;;;;;;;5004126;28;20188;-52
2023/01/13 03:52:16;;;;;;;1.70;1.20;;;;;;;;;;4991554;28;20187;-55
2023/01/13 03:54:49;;;;;;;1.40;1.30;;;9.10;99.90;;;;;;4992830;28;20683;-55
2023/01/13 03:57:18;;;;;;;3.60;1.30;;;9.00;99.90;;;;;;5009022;28;20247;-54
2023/01/13 03:59:47;;;;;;;1.50;1.33;;;9.10;99.90;;;;;;5009725;28;20352;-52
2023/01/13 04:02:35;;;;;;;1.60;1.50;;;9.10;99.90;;;;;;5014952;28;20214;-55
2023/01/13 04:05:02;;;;;;;2.30;1.30;;;9.10;99.90;;;;;;5012136;28;20208;-54
2023/01/13 04:07:54;;;;;;;1.57;1.30;;;9.10;99.90;;;;;;5022408;28;20227;-55
2023/01/13 04:10:39;;;;;;;2.50;1.50;;;9.30;99.90;;;;;;5019420;28;20167;-53
2023/01/13 04:13:13;;;;;;;2.40;1.53;;;9.20;99.90;;;;;;5031761;28;20184;-54
2023/01/13 04:15:41;;;;;;;1.87;1.30;;;9.10;99.90;;;;;;5031746;28;20294;-55
2023/01/13 04:18:14;;;;;;;2.13;1.50;;;9.20;99.90;;;;;;5023437;28;20244;-56
2023/01/13 04:20:41;;;;;;;1.40;1.30;;;9.40;99.90;;;;;;5012945;28;20247;-51
2023/01/13 04:23:07;;;;;;;1.70;1.47;;;9.50;99.90;;;;;;5032782;28;20207;-56
2023/01/13 04:25:34;;;;;;;1.90;1.50;;;9.10;99.90;;;;;;5025366;28;20181;-53
2023/01/13 04:28:00;;;;;;;1.57;1.37;;;;;;;;;;5012757;28;20199;-55
2023/01/13 04:30:25;;;;;;;1.43;1.20;;;9.50;99.90;;;;;;5026918;28;20215;-52
2023/01/13 04:32:51;;;;;;;1.70;1.20;;;9.50;99.90;;;;;;5030802;28;20237;-53
2023/01/13 04:35:16;;;;;;;2.10;1.50;;;9.40;99.90;;;;;;5013703;28;20268;-47
2023/01/13 04:37:42;;;;;;;1.53;1.43;;;9.70;99.90;;;;;;5023293;28;20188;-54
2023/01/13 04:40:08;;;;;;;2.20;1.97;;;9.30;99.90;;;;;;5013022;28;20180;-55
2023/01/13 04:42:34;;;;;;;2.10;1.90;;;9.20;99.90;;;;;;5012963;28;20177;-55
2023/01/13 04:44:59;;;;;;;2.50;1.80;;;9.20;99.90;;;;;;5020345;28;20191;-52
2023/01/13 04:47:25;;;;;;;1.53;1.40;;;9.10;99.90;;;;;;5014925;28;20204;-53
2023/01/13 04:49:50;;;;;;;1.90;1.70;;;9.10;99.90;;;;;;5028514;28;20588;-53
2023/01/13 04:52:16;;;;;;;1.60;1.40;;;9.10;99.90;;;;;;5031276;28;20175;-55
2023/01/13 04:54:41;;;;;;;4.40;3.57;;;9.20;99.90;;;;;;5026772;28;20188;-55
2023/01/13 04:57:07;;;;;;;9.33;8.43;;;9.30;99.90;;;;;;5012366;28;20219;-52
2023/01/13 04:59:32;;;;;;;3.57;3.27;;;9.20;99.90;;;;;;5027753;28;20210;-53
2023/01/13 05:01:58;;;;;;;5.47;4.97;;;9.20;99.90;;;;;;5028469;28;20184;-55
2023/01/13 05:04:24;;;;;;;3.30;3.00;;;9.20;99.90;;;;;;5012319;28;20702;-54
2023/01/13 05:06:49;;;;;;;5.53;4.07;;;9.20;99.90;;;;;;5014432;28;20715;-55
2023/01/13 05:09:15;;;;;;;7.10;5.50;;;9.30;99.90;;;;;;5018735;28;20208;-53
2023/01/13 05:17:11;;;;;;;2.53;2.07;;;9.40;99.90;;;;;;5017069;28;20242;-53
2023/01/13 05:19:39;;;;;;;1.87;1.77;;;9.50;99.90;;;;;;5011840;28;20204;-51
2023/01/13 05:27:34;;;;;;;6.30;4.60;;;9.50;99.90;;;;;;5025691;28;20212;-52
2023/01/13 05:29:59;;;;;;;21.07;15.53;;;9.50;99.90;;;;;;5016674;28;20184;-52
2023/01/13 05:32:26;;;;;;;40.00;29.10;;;9.50;99.90;;;;;;5031566;28;20208;-53
2023/01/13 05:34:53;;;;;;;11.80;8.57;;;9.40;99.90;;;;;;5019983;28;20275;-53
2023/01/13 05:37:19;;;;;;;2.10;1.90;;;9.40;99.90;;;;;;5019443;28;20214;-57
2023/01/13 05:45:12;;;;;;;2.67;1.50;;;10.70;99.90;;;;;;5011496;28;20183;-55
2023/01/13 05:47:38;;;;;;;1.50;1.40;;;9.20;99.90;;;;;;5029444;28;20592;-52
2023/01/13 05:50:04;;;;;;;2.80;1.50;;;9.20;99.90;;;;;;5029630;28;20176;-56
2023/01/13 05:52:30;;;;;;;8.73;7.23;;;9.20;99.90;;;;;;5020822;28;20180;-53
2023/01/13 05:54:56;;;;;;;6.27;5.50;;;9.30;99.90;;;;;;5028707;28;20171;-54
2023/01/13 05:57:22;;;;;;;21.87;16.47;;;9.30;99.90;;;;;;5027405;28;20703;-54
2023/01/13 05:59:47;;;;;;;13.60;9.07;;;9.40;99.90;;;;;;5011305;28;20724;-54
2023/01/13 06:02:13;;;;;;;14.47;10.33;;;9.30;99.90;;;;;;5011697;28;20238;-55
2023/01/13 06:04:38;;;;;;;3.00;2.03;;;9.20;99.90;;;;;;5018813;28;20172;-55
2023/01/13 06:07:04;;;;;;;4.10;3.00;;;9.30;99.90;;;;;;5021069;28;20561;-55
2023/01/13 06:09:30;;;;;;;11.27;8.83;;;9.30;99.90;;;;;;5012263;28;20188;-52
2023/01/13 06:11:55;;;;;;;11.57;9.30;;;9.20;99.90;;;;;;5019254;28;20203;-55
2023/01/13 06:14:21;;;;;;;10.70;9.60;;;9.30;99.90;;;;;;5019221;28;20181;-52
2023/01/13 06:16:46;;;;;;;2.70;2.30;;;9.30;99.90;;;;;;5017398;28;20206;-52
2023/01/13 06:19:12;;;;;;;9.10;7.13;;;9.40;99.90;;;;;;5030810;28;20199;-54
2023/01/13 06:21:43;;;;;;;8.03;6.80;;;9.40;99.90;;;;;;5028709;28;20174;-55
2023/01/13 06:24:09;;;;;;;15.13;12.20;;;9.40;99.90;;;;;;5029172;28;20688;-52
2023/01/13 06:26:37;;;;;;;24.93;19.03;;;9.40;99.90;;;;;;5030308;28;20206;-55
2023/01/13 06:29:03;;;;;;;11.63;7.73;;;9.40;99.90;;;;;;5018018;28;20684;-54
2023/01/13 06:31:30;;;;;;;6.27;4.20;;;9.50;99.90;;;;;;5011358;28;20185;-55
2023/01/13 06:34:04;;;;;;;3.40;2.70;;;9.50;99.90;;;;;;5021290;28;20187;-54
2023/01/13 06:36:36;;;;;;;3.73;3.00;;;9.50;99.90;;;;;;5028209;28;20756;-50
2023/01/13 06:39:03;;;;;;;2.87;2.23;;;9.60;99.90;;;;;;5027615;28;20195;-52
2023/01/13 06:44:15;;;;;;;3.93;3.53;;;9.30;99.90;;;;;;5029600;28;20225;-51
2023/01/13 06:46:41;;;;;;;5.97;5.37;;;9.40;99.90;;;;;;5020181;28;20213;-54
2023/01/13 06:49:07;;;;;;;5.73;5.13;;;9.40;99.90;;;;;;5028963;28;20183;-55
2023/01/13 06:51:32;;;;;;;8.90;7.97;;;9.40;99.90;;;;;;5029808;28;20644;-53
2023/01/13 06:53:58;;;;;;;10.83;7.90;;;9.40;99.90;;;;;;5030362;28;20176;-54
2023/01/13 06:56:23;;;;;;;5.73;4.87;;;9.40;99.90;;;;;;5030462;28;20287;-52
2023/01/13 06:58:49;;;;;;;5.40;3.57;;;9.40;99.90;;;;;;5034586;28;20278;-52
2023/01/13 07:01:14;;;;;;;4.23;2.83;;;9.40;99.90;;;;;;5034126;28;20168;-54
2023/01/13 07:03:40;;;;;;;5.13;2.87;;;9.30;99.90;;;;;;5034174;28;20172;-53
2023/01/13 07:06:06;;;;;;;4.10;2.40;;;9.20;99.90;;;;;;5034311;28;20188;-52
2023/01/13 07:08:31;;;;;;;18.30;14.60;;;9.20;99.90;;;;;;5034413;28;20172;-52
2023/01/13 07:10:57;;;;;;;8.63;6.20;;;9.20;99.90;;;;;;5034572;28;20179;-52
2023/01/13 07:16:08;;;;;;;2.30;2.10;;;9.30;99.90;;;;;;5034259;28;20206;-55
2023/01/13 07:18:34;;;;;;;2.37;1.70;;;9.20;99.90;;;;;;5033155;28;20200;-54
2023/01/13 07:21:05;;;;;;;3.50;2.10;;;9.10;99.90;;;;;;5032218;28;20168;-51
2023/01/13 07:23:39;;;;;;;2.57;2.37;;;9.10;99.90;;;;;;5025344;28;20249;-50
2023/01/13 07:26:06;;;;;;;2.10;1.90;;;9.10;99.90;;;;;;5033447;28;20196;-50
2023/01/13 07:28:32;;;;;;;2.40;2.20;;;9.10;99.90;;;;;;5033992;28;20229;-54
2023/01/13 07:30:58;;;;;;;3.10;2.47;;;9.10;99.90;;;;;;5031141;28;20179;-54
2023/01/13 07:33:24;;;;;;;3.03;2.50;;;9.20;99.90;;;;;;5013932;28;20169;-51
2023/01/13 07:36:01;;;;;;;3.43;3.07;;;9.20;99.90;;;;;;5013494;28;20558;-51
2023/01/13 07:38:27;;;;;;;7.83;4.03;;;9.30;99.90;;;;;;5013890;28;20204;-55
2023/01/13 07:40:53;;;;;;;5.77;4.13;;;9.30;99.90;;;;;;5013647;28;20179;-52
2023/01/13 07:43:33;;;;;;;4.40;3.70;;;9.30;99.90;;;;;;5013996;28;20165;-51
2023/01/13 07:46:04;;;;;;;3.40;3.10;;;9.30;99.90;;;;;;5013684;28;20704;-54
2023/01/13 07:48:31;;;;;;;3.47;2.53;;;9.30;99.90;;;;;;5014017;28;20180;-51
2023/01/13 07:51:17;;;;;;;3.73;1.80;;;9.20;99.90;;;;;;5013928;28;20173;-54
2023/01/13 07:53:43;;;;;;;2.20;2.00;;;9.20;99.90;;;;;;5013526;28;20192;-51
2023/01/13 07:56:09;;;;;;;2.60;2.30;;;9.20;99.90;;;;;;5028641;28;20341;-49
2023/01/13 07:58:35;;;;;;;2.27;1.80;;;9.30;99.90;;;;;;5033370;28;20672;-53
2023/01/13 08:01:09;;;;;;;1.87;1.70;;;9.30;99.90;;;;;;5033570;28;20176;-50
2023/01/13 08:03:34;;;;;;;1.70;1.60;;;9.40;99.90;;;;;;5033187;28;20194;-53
2023/01/13 08:06:01;;;;;;;1.80;1.60;;;9.40;99.90;;;;;;5033344;28;20187;-51
2023/01/13 08:08:26;;;;;;;3.07;2.37;;;9.50;99.90;;;;;;5032794;28;20218;-50
2023/01/13 08:10:52;;;;;;;2.53;2.17;;;9.60;99.90;;;;;;5033450;28;20763;-51
2023/01/13 08:13:19;;;;;;;2.70;1.87;;;9.60;99.90;;;;;;5033189;28;20212;-51
2023/01/13 08:15:47;;;;;;;2.07;1.87;;;9.70;99.90;;;;;;5029749;28;20191;-53
2023/01/13 08:18:13;;;;;;;2.33;2.03;;;9.70;99.90;;;;;;5031991;28;20200;-53
2023/01/13 08:20:38;;;;;;;1.70;1.60;;;9.60;99.90;;;;;;5032775;28;20241;-51
2023/01/13 08:23:04;;;;;;;2.00;1.80;;;9.60;99.90;;;;;;5032803;28;20178;-51
2023/01/13 08:25:30;;;;;;;1.63;1.53;;;9.50;99.90;;;;;;5032072;28;20719;-52
2023/01/13 08:27:56;;;;;;;1.93;1.73;;;9.50;99.90;;;;;;5032888;28;20179;-54
2023/01/13 08:30:22;;;;;;;2.17;1.80;;;9.50;99.90;;;;;;5032805;28;20533;-54
2023/01/13 08:32:48;;;;;;;1.97;1.87;;;9.60;99.90;;;;;;5032674;28;20321;-52
2023/01/13 08:35:16;;;;;;;1.87;1.33;;;10.50;99.90;;;;;;5032052;28;20196;-53
2023/01/13 08:37:42;;;;;;;3.73;2.30;;;9.80;99.90;;;;;;5032723;28;20192;-53
2023/01/13 08:40:11;;;;;;;3.63;2.80;;;9.90;99.90;;;;;;5032541;28;20183;-51
2023/01/13 08:42:37;;;;;;;3.73;2.90;;;10.00;99.90;;;;;;5032815;28;20187;-51
2023/01/13 08:45:03;;;;;;;3.63;3.33;;;10.10;99.90;;;;;;5032182;28;20649;-51
2023/01/13 08:47:29;;;;;;;3.10;2.40;;;10.20;99.90;;;;;;5032402;28;20198;-53
2023/01/13 08:49:54;;;;;;;10.93;9.57;;;10.10;99.90;;;;;;5032517;28;20179;-51
2023/01/13 08:52:20;;;;;;;7.77;6.80;;;10.30;99.90;;;;;;5032180;28;20195;-51
2023/01/13 08:54:46;;;;;;;7.33;5.70;;;10.40;99.90;;;;;;5032194;28;20660;-51
2023/01/13 08:57:12;;;;;;;6.00;4.90;;;10.50;99.90;;;;;;5032189;28;20203;-54
2023/01/13 08:59:37;;;;;;;6.77;6.00;;;10.40;99.90;;;;;;5032258;28;20282;-51
2023/01/13 09:02:08;;;;;;;13.37;11.97;;;10.50;99.90;;;;;;5032035;28;20262;-51
2023/01/13 09:04:33;;;;;;;11.00;9.00;;;10.50;99.90;;;;;;5030974;28;20230;-51
2023/01/13 09:07:01;;;;;;;3.90;3.27;;;10.50;99.90;;;;;;5031966;28;20192;-52
2023/01/13 09:09:26;;;;;;;3.80;2.77;;;11.70;99.90;;;;;;5032321;28;20199;-52
2023/01/13 09:14:37;;;;;;;3.73;2.30;;;10.60;99.90;;;;;;5031884;28;20245;-51
2023/01/13 09:17:03;;;;;;;2.93;2.63;;;10.60;99.90;;;;;;5032004;28;20199;-53
2023/01/13 09:19:29;;;;;;;3.27;2.77;;;10.70;99.90;;;;;;5031008;28;20286;-54
2023/01/13 09:21:56;;;;;;;3.50;2.90;;;10.80;99.90;;;;;;5032110;28;20640;-55
2023/01/13 09:24:23;;;;;;;10.40;8.27;;;11.00;99.90;;;;;;5031215;28;20175;-52
2023/01/13 09:26:48;;;;;;;3.67;2.60;;;12.40;99.90;;;;;;5031717;28;20265;-52
2023/01/13 09:29:14;;;;;;;4.70;2.87;;;11.90;99.90;;;;;;5031392;28;20180;-51
2023/01/13 09:31:40;;;;;;;3.33;2.30;;;12.30;99.90;;;;;;5031921;28;20610;-52
2023/01/13 09:36:53;;;;;;;3.77;2.47;;;12.40;99.90;;;;;;5031461;28;20217;-50
2023/01/13 09:39:18;;;;;;;2.93;2.40;;;12.20;99.90;;;;;;5029013;28;20207;-54
2023/01/13 09:44:47;;;;;;;3.67;3.00;;;11.90;99.90;;;;;;5030005;28;20686;-50
2023/01/13 09:47:29;;;;;;;2.60;2.40;;;11.80;99.90;;;;;;5024735;28;20196;-55
2023/01/13 09:50:07;;;;;;;3.90;2.50;;;11.60;99.90;;;;;;5020435;28;20653;-53
2023/01/13 09:52:32;;;;;;;3.00;2.40;;;11.50;99.90;;;;;;5020472;28;20461;-51
2023/01/13 09:55:23;;;;;;;2.83;2.53;;;11.30;99.90;;;;;;5019022;28;20557;-51
2023/01/13 09:57:49;;;;;;;2.90;2.20;;;11.20;99.90;;;;;;5021999;28;20196;-51
2023/01/13 10:00:34;;;;;;;2.23;2.03;;;11.10;99.90;;;;;;5021523;28;20230;-53
2023/01/13 10:03:06;;;;;;;4.03;1.97;;;11.00;99.90;;;;;;5020607;28;20175;-52
2023/01/13 10:05:44;;;;;;;1.90;1.77;;;11.10;99.90;;;;;;5018800;28;20180;-55
2023/01/13 10:08:21;;;;;;;2.07;1.70;;;11.10;99.90;;;;;;5019237;28;20267;-53
2023/01/13 10:10:48;;;;;;;2.30;2.10;;;11.20;99.90;;;;;;5019271;28;21054;-52
2023/01/13 10:13:18;;;;;;;2.37;2.07;;;11.30;99.90;;;;;;5021091;28;20245;-53
2023/01/13 10:15:53;;;;;;;2.37;2.00;;;11.20;99.90;;;;;;5021099;28;20230;-51
2023/01/13 10:18:38;;;;;;;6.13;4.67;;;11.10;99.90;;;;;;5021380;28;20203;-50
2023/01/13 10:21:12;;;;;;;3.90;3.20;;;11.00;99.90;;;;;;5019269;28;20173;-50
2023/01/13 10:24:04;;;;;;;2.20;2.00;;;10.90;99.90;;;;;;5018869;28;20207;-49
2023/01/13 10:26:43;;;;;;;4.27;3.87;;;10.90;99.90;;;;;;5019803;28;20192;-52
2023/01/13 10:29:24;;;;;;;4.00;2.70;;;10.80;99.90;;;;;;5019709;28;20211;-53
2023/01/13 10:31:52;;;;;;;3.07;2.77;;;10.80;99.90;;;;;;5022575;28;20586;-50
2023/01/13 10:34:19;;;;;;;12.43;11.13;;;10.90;99.90;;;;;;5022528;28;20230;-53
2023/01/13 10:37:06;;;;;;;5.37;4.87;;;10.90;99.90;;;;;;5022857;28;20602;-51
2023/01/13 10:39:41;;;;;;;2.90;2.67;;;11.00;99.90;;;;;;5023741;28;20196;-53
2023/01/13 10:42:17;;;;;;;2.50;2.10;;;11.00;99.90;;;;;;5023239;28;20180;-51
2023/01/13 10:44:58;;;;;;;7.90;7.10;;;10.90;99.90;;;;;;5021557;28;20814;-54
2023/01/13 10:47:30;;;;;;;2.17;1.93;;;10.80;99.90;;;;;;5024583;28;20203;-53
2023/01/13 10:50:16;;;;;;;2.40;2.20;;;10.90;99.90;;;;;;5027918;28;20184;-51
2023/01/13 10:53:14;;;;;;;2.40;2.10;;;11.00;99.90;;;;;;5025152;28;20246;-52
2023/01/13 10:55:40;;;;;;;2.30;2.10;;;11.20;99.90;;;;;;5023580;28;20692;-51
2023/01/13 10:58:20;;;;;;;2.13;1.93;;;11.40;99.90;;;;;;5026604;28;20195;-51
2023/01/13 11:00:47;;;;;;;2.93;2.00;;;11.60;99.90;;;;;;5022575;28;20172;-53
2023/01/13 11:03:22;;;;;;;1.77;1.60;;;11.80;99.90;;;;;;5023900;28;20187;-53
2023/01/13 11:05:53;;;;;;;2.47;1.70;;;12.10;99.90;;;;;;5021462;28;20742;-51
2023/01/13 11:08:23;;;;;;;2.03;1.70;;;12.10;99.90;;;;;;5052249;22;20707;-51
2023/01/13 11:10:51;;;;;;;17.13;12.77;;;12.10;99.90;;;;;;5031496;28;20180;-54
2023/01/13 11:13:34;;;;;;;5.23;4.10;;;11.80;99.90;;;;;;5032996;28;20179;-52
2023/01/13 11:16:13;;;;;;;117.00;58.40;;;11.70;99.90;;;;;;5033433;28;20229;-53
2023/01/13 11:19:10;;;;;;;62.20;35.87;;;11.60;99.90;;;;;;5033266;28;20703;-55
2023/01/13 11:21:45;;;;;;;18.67;12.60;;;11.50;99.90;;;;;;5033169;28;20217;-57
2023/01/13 11:24:36;;;;;;;5.77;3.30;;;11.60;99.90;;;;;;5033322;28;20270;-55
2023/01/13 11:27:19;;;;;;;2.90;2.70;;;11.70;99.90;;;;;;5033249;28;20263;-53
2023/01/13 11:30:09;;;;;;;2.97;2.40;;;11.70;99.90;;;;;;5033575;28;20218;-56
2023/01/13 11:32:42;;;;;;;3.27;2.90;;;11.70;99.90;;;;;;5033513;28;20176;-52
2023/01/13 11:35:20;;;;;;;2.70;2.23;;;11.80;99.90;;;;;;5033234;28;20537;-54
2023/01/13 11:38:00;;;;;;;1.97;1.70;;;12.10;99.90;;;;;;5032759;28;20199;-56
2023/01/13 11:40:47;;;;;;;2.13;1.80;;;12.70;99.90;;;;;;5032839;28;20182;-54
2023/01/13 11:43:27;;;;;;;1.70;1.60;;;13.20;99.90;;;;;;5031780;28;20649;-55
2023/01/13 11:45:57;;;;;;;3.20;1.80;;;13.80;99.90;;;;;;5032920;28;20179;-57
2023/01/13 11:48:26;;;;;;;1.70;1.40;;;14.60;99.90;;;;;;5033130;28;20203;-54
2023/01/13 11:51:12;;;;;;;1.57;1.47;;;15.60;99.90;;;;;;5032684;28;20174;-52
2023/01/13 11:54:35;;;;;;;1.77;1.67;;;16.50;99.90;;;;;;5031517;28;20168;-58
2023/01/13 11:57:06;;;;;;;1.63;1.53;;;17.80;99.90;;;;;;4990430;28;20260;-56
2023/01/13 11:59:53;;;;;;;1.50;1.40;;;19.40;98.20;;;;;;4990407;28;20227;-53
2023/01/13 12:02:27;;;;;;;2.33;1.80;;;20.30;97.40;;;;;;4990649;28;20221;-52
2023/01/13 12:04:59;;;;;;;1.55;1.45;;;21.30;96.30;;;;;;4990631;28;20272;-53
2023/01/13 12:07:50;;;;;;;1.40;1.05;;;22.40;94.90;;;;;;4991326;28;20670;-52
2023/01/13 12:10:29;;;;;;;0.90;0.90;;;23.00;92.40;;;;;;4991171;28;20166;-56
2023/01/13 12:12:54;;;;;;;0.85;0.80;;;22.70;90.90;;;;;;4991154;28;20215;-54
2023/01/13 12:15:21;;;;;;;1.10;1.00;;;21.50;92.40;;;;;;4990726;28;20210;-58
2023/01/13 12:18:10;;;;;;;1.40;0.95;;;21.00;92.90;;;;;;4997474;28;20246;-54
2023/01/13 12:21:00;;;;;;;0.80;0.80;;;21.00;93.60;;;;;;5003824;28;20184;-57
2023/01/13 12:23:45;;;;;;;1.73;1.48;;;21.10;93.10;;;;;;5010400;28;20180;-53
2023/01/13 12:26:17;;;;;;;0.98;0.98;;;20.90;92.70;;;;;;5010405;28;20169;-52
2023/01/13 12:28:56;;;;;;;2.03;1.50;;;20.90;92.50;;;;;;5010458;28;20188;-54
2023/01/13 12:31:23;;;;;;;1.80;1.48;;;20.50;93.70;;;;;;5024656;28;20347;-58
2023/01/13 12:34:26;;;;;;;1.55;1.45;;;20.20;93.00;;;;;;5032034;28;20588;-57
2023/01/13 12:37:03;;;;;;;3.13;1.50;;;19.80;93.40;;;;;;5031977;28;20613;-54
2023/01/13 12:39:32;;;;;;;1.27;1.17;;;18.60;93.90;;;;;;5032420;28;20642;-58
2023/01/13 12:45:09;;;;;;;1.00;0.90;;;15.20;99.10;;;;;;5031946;28;20175;-54
2023/01/13 12:47:37;;;;;;;1.37;1.10;;;13.70;99.90;;;;;;5032060;28;20180;-56
2023/01/13 12:50:21;;;;;;;1.07;1.00;;;12.90;99.90;;;;;;5032212;28;20186;-55
2023/01/13 12:52:49;;;;;;;1.27;1.17;;;12.40;99.90;;;;;;5032081;28;20175;-54
2023/01/13 12:55:25;;;;;;;1.27;1.13;;;12.10;99.90;;;;;;5031873;28;20677;-57
2023/01/13 12:58:09;;;;;;;0.90;0.90;;;11.90;99.90;;;;;;5032022;28;20205;-56
2023/01/13 13:00:59;;;;;;;1.33;1.10;;;11.60;99.90;;;;;;5032221;28;20175;-56
2023/01/13 13:03:28;;;;;;;1.30;1.00;;;11.40;99.90;;;;;;5032080;28;20176;-55
2023/01/13 13:06:00;;;;;;;1.30;1.20;;;11.40;99.90;;;;;;5031682;28;20246;-58
2023/01/13 13:08:57;;;;;;;0.97;0.93;;;11.30;99.90;;;;;;5031472;28;20211;-54
2023/01/13 13:14:36;;;;;;;1.10;1.10;;;11.30;99.90;;;;;;5031338;28;20537;-53
2023/01/13 13:17:20;;;;;;;1.03;0.97;;;11.40;99.90;;;;;;5031618;28;20635;-54
2023/01/13 13:19:48;;;;;;;1.67;1.27;;;11.50;99.90;;;;;;5031058;28;20713;-52
2023/01/13 13:22:17;;;;;;;1.50;1.40;;;11.50;99.90;;;;;;5029856;28;20228;-55
2023/01/13 13:24:56;;;;;;;1.73;1.30;;;11.50;99.90;;;;;;5020285;28;20700;-52
2023/01/13 13:27:21;;;;;;;1.00;1.00;;;11.50;99.90;;;;;;5024486;28;20170;-53
2023/01/13 13:30:01;;;;;;;1.57;1.47;;;11.60;99.90;;;;;;5019236;28;20669;-54
2023/01/13 13:32:54;;;;;;;1.93;1.50;;;11.60;99.90;;;;;;5019670;28;20176;-57
2023/01/13 13:35:55;;;;;;;2.63;1.60;;;11.60;99.90;;;;;;5020292;28;20230;-51
2023/01/13 13:47:05;;;;;;;1.60;1.50;;;11.20;99.90;;;;;;4988385;28;20228;-53
2023/01/13 13:49:44;;;;;;;1.40;1.30;;;11.10;99.90;;;;;;4988369;28;20285;-52
2023/01/13 13:52:35;;;;;;;2.30;1.30;;;11.10;99.90;;;;;;4988247;28;20177;-53
2023/01/13 13:55:22;;;;;;;1.20;1.10;;;11.10;99.90;;;;;;4978665;28;20194;-54
2023/01/13 13:57:50;;;;;;;2.80;1.37;;;11.00;99.90;;;;;;4988026;28;20608;-54
2023/01/13 14:00:20;;;;;;;1.17;1.10;;;11.00;99.90;;;;;;4988153;28;20343;-54
2023/01/13 14:02:49;;;;;;;1.33;1.20;;;11.10;99.90;;;;;;4987747;28;20196;-55
2023/01/13 14:05:20;;;;;;;1.63;1.20;;;11.00;99.90;;;;;;4971149;28;20169;-52
2023/01/13 14:08:11;;;;;;;1.27;1.03;;;11.00;99.90;;;;;;4979142;28;20189;-53
2023/01/13 14:10:38;;;;;;;1.63;1.10;;;11.00;99.90;;;;;;4986051;28;20189;-56
2023/01/13 14:13:26;;;;;;;2.10;1.10;;;11.00;99.90;;;;;;4993819;28;20180;-57
2023/01/13 14:15:56;;;;;;;1.37;1.27;;;11.00;99.90;;;;;;5020668;28;20203;-54
2023/01/13 14:18:22;;;;;;;1.30;1.20;;;10.80;99.90;;;;;;5020118;28;20215;-54
2023/01/13 14:20:55;;;;;;;0.80;0.80;;;10.90;99.90;;;;;;5018732;28;20171;-53
2023/01/13 14:23:26;;;;;;;1.37;0.80;;;11.00;99.90;;;;;;5019958;28;20649;-53
2023/01/13 14:25:53;;;;;;;15.13;13.27;;;10.90;99.90;;;;;;5019123;28;20255;-55